< Cyclone 200705 2007 Season Cyclone 200712 >
Cyclone 200711 (GEORGE)
General InformationDetailed Track InformationTrack Information on Google MapsList of All Images || ResourceGoogle EarthGE AnimationAtom FeedGeoJSON
Detalied Best Track Wind (Time Zone = UTC)
Year Month Day Hour Lat. Long. Wind (kt) Gust (kt) Direc. of Major Storm Axis Radius of Major Storm Axis (nm) Radius of Minor Storm Axis (nm) Direc. of Major Gale Axis Radius of Major Gale Axis (nm) Radius of Minor Gale Axis (nm) Image
2007 2 27 00 -12.0 135.2 0 -1 symmetric - - symmetric - - Image
2007 2 27 06 -12.0 134.6 0 -1 symmetric - - symmetric - - Image
2007 2 27 12 -12.1 134.8 0 -1 symmetric - - symmetric - - Image
2007 2 27 18 -12.1 134.8 0 -1 symmetric - - symmetric - - Image
2007 2 28 00 -12.2 134.5 0 -1 symmetric - - symmetric - - Image
2007 2 28 06 -12.1 134.9 0 -1 symmetric - - symmetric - - Image
2007 2 28 12 -12.2 134.9 0 -1 symmetric - - symmetric - - Image
2007 2 28 18 -12.3 135.7 0 -1 symmetric - - symmetric - - Image
2007 3 1 00 -12.5 135.4 0 -1 symmetric - - symmetric - - Image
2007 3 1 06 -12.8 135.5 0 -1 symmetric - - symmetric - - Image
2007 3 1 12 -12.9 135.0 0 -1 symmetric - - symmetric - - Image
2007 3 1 18 -13.0 134.2 0 -1 symmetric - - symmetric - - Image
2007 3 2 00 -13.0 133.8 0 -1 symmetric - - symmetric - - Image
2007 3 2 06 -12.9 133.2 0 -1 symmetric - - symmetric - - Image
2007 3 2 12 -13.0 132.6 0 -1 symmetric - - symmetric - - Image
2007 3 2 18 -13.1 131.4 25 -1 symmetric - - symmetric - - Image
2007 3 3 00 -13.3 130.7 25 -1 symmetric - - symmetric - - Image
2007 3 3 06 -13.8 130.1 25 -1 symmetric - - symmetric - - Image
2007 3 3 12 -14.0 129.4 30 -1 symmetric - - symmetric - - Image
2007 3 3 18 -14.4 129.2 40 -1 symmetric - - symmetric - - Image
2007 3 4 00 -14.5 128.5 50 -1 symmetric - - symmetric - - Image
2007 3 4 06 -14.3 127.9 40 -1 symmetric - - symmetric - - Image
2007 3 4 12 -14.3 127.3 30 -1 symmetric - - symmetric - - Image
2007 3 4 18 -14.2 126.4 40 -1 symmetric - - symmetric - - Image
2007 3 5 00 -14.4 125.5 30 45 symmetric - - symmetric - - Image
2007 3 5 06 -14.4 124.9 40 55 symmetric - - symmetric - - Image
2007 3 5 12 -14.4 124.1 45 65 symmetric - - symmetric - - Image
2007 3 5 18 -14.4 123.2 50 70 symmetric - - symmetric - - Image
2007 3 6 00 -14.4 122.4 50 70 symmetric - - symmetric - - Image
2007 3 6 06 -14.4 121.6 50 70 symmetric - - symmetric - - Image
2007 3 6 12 -14.5 120.9 45 65 symmetric - - symmetric - - Image
2007 3 6 18 -14.8 120.2 45 65 symmetric - - symmetric - - Image
2007 3 7 00 -14.9 119.6 50 70 symmetric - - symmetric - - Image
2007 3 7 06 -15.3 119.3 60 85 symmetric - - symmetric - - Image
2007 3 7 12 -16.0 119.3 70 100 symmetric - - symmetric - - Image
2007 3 7 18 -16.7 119.3 75 105 symmetric - - symmetric - - Image
2007 3 8 00 -17.6 119.3 90 125 symmetric - - symmetric - - Image
2007 3 8 01 -17.8 119.3 90 -1 symmetric - - symmetric - - Image
2007 3 8 02 -18.0 119.2 90 -1 symmetric - - symmetric - - Image
2007 3 8 03 -18.2 119.2 90 125 symmetric - - symmetric - - Image
2007 3 8 04 -18.4 119.2 91.6667 -1 symmetric - - symmetric - - Image
2007 3 8 05 -18.6 119.1 93.3333 -1 symmetric - - symmetric - - Image
2007 3 8 06 -18.7 119.0 95 135 symmetric - - symmetric - - Image
2007 3 8 07 -18.8 119.0 98.3333 -1 symmetric - - symmetric - - Image
2007 3 8 08 -19.0 119.1 101.667 -1 symmetric - - symmetric - - Image
2007 3 8 09 -19.2 119.1 105 150 symmetric - - symmetric - - Image
2007 3 8 10 -19.4 119.1 106.667 -1 symmetric - - symmetric - - Image
2007 3 8 11 -19.6 119.1 108.333 -1 symmetric - - symmetric - - Image
2007 3 8 12 -19.8 119.1 110 155 symmetric - - symmetric - - Image
2007 3 8 13 -20.0 119.0 105 -1 symmetric - - symmetric - - Image
2007 3 8 14 -20.1 119.0 100 -1 symmetric - - symmetric - - Image
2007 3 8 15 -20.3 119.0 95 135 symmetric - - symmetric - - Image
2007 3 8 16 -20.5 118.8 88.3333 -1 symmetric - - symmetric - - Image
2007 3 8 17 -20.6 118.8 81.6667 -1 symmetric - - symmetric - - Image
2007 3 8 18 -20.8 118.8 75 105 symmetric - - symmetric - - Image
2007 3 8 21 -21.2 118.9 65 90 symmetric - - symmetric - - Image
2007 3 9 00 -21.5 119.0 55 75 symmetric - - symmetric - - Image
2007 3 9 03 -21.8 119.2 50 70 symmetric - - symmetric - - Image
2007 3 9 06 -22.0 119.5 45 65 symmetric - - symmetric - - Image
2007 3 9 12 -22.5 120.4 40 55 symmetric - - symmetric - - Image
2007 3 9 18 -23.0 121.0 35 50 symmetric - - symmetric - - Image
2007 3 10 00 -23.5 121.7 30 45 symmetric - - symmetric - - Image
2007 3 10 06 -23.9 122.0 30 45 symmetric - - symmetric - - Image
2007 3 10 12 -24.3 122.3 30 45 symmetric - - symmetric - - Image
2007 3 10 18 -24.8 122.9 30 45 symmetric - - symmetric - - Image
2007 3 11 00 -25.1 123.6 25 40 symmetric - - symmetric - - Image
2007 3 11 06 -25.5 124.2 25 40 symmetric - - symmetric - - Image
2007 3 11 12 -25.8 124.6 25 40 symmetric - - symmetric - - Image
2007 3 11 18 -26.1 125.0 25 40 symmetric - - symmetric - - Image
2007 3 12 00 -26.9 124.2 20 30 symmetric - - symmetric - - Image
2007 3 12 06 -27.3 124.4 20 30 symmetric - - symmetric - - Image
< Cyclone 200705 2007 Season Cyclone 200712 >

Help